Time;durP1;ratioP1;P1;durP2;ratioP2;P2;SDS_P1;SDS_P2;PMS_P1;PMS_P2;Temp;Humidity;BMP_temperature;BMP_pressure;BME280_temperature;BME280_humidity;BME280_pressure;Samples;Min_cycle;Max_cycle;Signal;HPM_P1;HPM_P2
2023/06/07 00:02:00;;;;;;;5.50;2.38;;;14.20;99.90;;;;;;5035258;28;20115;-80
2023/06/07 00:04:26;;;;;;;8.27;3.88;;;14.00;99.90;;;;;;5019821;28;20048;-79
2023/06/07 00:07:00;;;;;;;7.45;4.25;;;13.90;99.90;;;;;;5025186;28;20488;-79
2023/06/07 00:09:29;;;;;;;7.90;3.50;;;13.90;99.90;;;;;;5025190;28;20386;-79
2023/06/07 00:11:55;;;;;;;8.03;3.30;;;13.80;99.90;;;;;;5025505;28;20026;-79
2023/06/07 00:14:22;;;;;;;8.45;4.00;;;13.80;99.90;;;;;;5024551;28;20311;-81
2023/06/07 00:16:50;;;;;;;4.60;2.80;;;13.80;99.90;;;;;;5026910;28;20456;-80
2023/06/07 00:19:25;;;;;;;7.32;4.63;;;13.80;99.90;;;;;;5026746;28;20381;-80
2023/06/07 00:21:51;;;;;;;6.00;3.45;;;13.60;99.90;;;;;;5055927;28;20541;-80
2023/06/07 00:24:18;;;;;;;6.35;3.47;;;13.60;99.90;;;;;;5043487;28;20045;-79
2023/06/07 00:26:43;;;;;;;6.55;3.35;;;13.60;99.90;;;;;;5024261;28;20077;-81
2023/06/07 00:29:10;;;;;;;5.75;2.65;;;13.60;99.90;;;;;;5027162;28;20022;-80
2023/06/07 00:31:35;;;;;;;6.60;3.70;;;13.60;99.90;;;;;;5037442;28;20084;-80
2023/06/07 00:34:01;;;;;;;11.07;3.95;;;13.60;99.90;;;;;;5055231;28;20473;-80
2023/06/07 00:36:28;;;;;;;8.98;4.35;;;13.60;99.90;;;;;;5019787;28;20385;-79
2023/06/07 00:38:54;;;;;;;7.03;3.22;;;13.60;99.90;;;;;;5053975;28;20025;-80
2023/06/07 00:41:20;;;;;;;9.10;4.90;;;13.50;99.90;;;;;;5044188;28;20449;-80
2023/06/07 00:43:47;;;;;;;9.10;4.13;;;13.40;99.90;;;;;;5041799;28;20033;-80
2023/06/07 00:46:16;;;;;;;7.68;3.45;;;13.40;99.90;;;;;;5041965;28;20120;-80
2023/06/07 00:48:41;;;;;;;8.77;4.05;;;13.40;99.90;;;;;;5040021;28;20504;-80
2023/06/07 00:51:07;;;;;;;8.40;3.25;;;13.40;99.90;;;;;;5041593;28;20069;-79
2023/06/07 00:53:34;;;;;;;7.05;3.08;;;13.40;99.90;;;;;;5043527;28;20052;-79
2023/06/07 00:55:59;;;;;;;5.88;3.13;;;13.50;99.90;;;;;;5028576;28;20029;-79
2023/06/07 00:58:25;;;;;;;8.80;4.15;;;13.40;99.90;;;;;;5035568;28;20055;-80
2023/06/07 01:00:51;;;;;;;7.88;3.47;;;13.30;99.90;;;;;;5027399;28;20025;-80
2023/06/07 01:03:17;;;;;;;8.38;2.88;;;13.30;99.90;;;;;;5029406;28;20045;-80
2023/06/07 01:05:44;;;;;;;7.15;2.83;;;13.30;99.90;;;;;;5012005;28;20041;-80
2023/06/07 01:08:11;;;;;;;7.20;2.90;;;13.30;99.90;;;;;;5043882;28;20071;-80
2023/06/07 01:10:37;;;;;;;5.85;2.63;;;13.20;99.90;;;;;;5060470;28;20122;-80
2023/06/07 01:13:03;;;;;;;8.57;3.00;;;13.30;99.90;;;;;;5028999;28;20057;-80
2023/06/07 01:15:30;;;;;;;6.25;2.50;;;13.20;99.90;;;;;;5043893;28;20033;-80
2023/06/07 01:17:57;;;;;;;6.63;3.20;;;13.30;99.90;;;;;;5026358;28;20030;-80
2023/06/07 01:20:26;;;;;;;4.35;1.60;;;13.20;99.90;;;;;;5029022;28;20048;-80
2023/06/07 01:22:59;;;;;;;8.23;2.42;;;13.30;99.90;;;;;;5025996;28;20486;-79
2023/06/07 01:25:26;;;;;;;6.78;3.35;;;13.20;99.90;;;;;;5026909;28;20052;-78
2023/06/07 01:27:53;;;;;;;9.90;4.15;;;13.20;99.90;;;;;;5039225;28;20034;-78
2023/06/07 01:30:22;;;;;;;7.15;3.42;;;13.10;99.90;;;;;;5029129;28;20399;-78
2023/06/07 01:32:48;;;;;;;9.77;3.60;;;13.10;99.90;;;;;;5044061;28;20022;-77
2023/06/07 01:35:14;;;;;;;10.23;4.50;;;13.10;99.90;;;;;;5039065;28;20033;-78
2023/06/07 01:37:42;;;;;;;7.57;2.60;;;13.00;99.90;;;;;;5039834;28;20483;-79
2023/06/07 01:40:09;;;;;;;9.02;3.17;;;13.10;99.90;;;;;;5025569;28;20025;-79
2023/06/07 01:42:35;;;;;;;6.43;3.15;;;13.00;99.90;;;;;;5029129;28;20524;-79
2023/06/07 01:45:03;;;;;;;6.82;2.85;;;13.00;99.90;;;;;;5039768;28;20655;-78
2023/06/07 01:47:30;;;;;;;7.35;2.72;;;13.00;99.90;;;;;;5044700;28;20033;-79
2023/06/07 01:49:57;;;;;;;4.90;1.60;;;13.10;99.90;;;;;;5044268;28;20044;-79
2023/06/07 01:52:23;;;;;;;3.58;1.60;;;13.10;99.90;;;;;;5020901;28;20541;-78
2023/06/07 01:54:49;;;;;;;8.32;3.10;;;13.10;99.90;;;;;;5042531;28;20029;-80
2023/06/07 01:57:27;;;;;;;6.32;2.75;;;12.90;99.90;;;;;;5013487;28;20112;-80
2023/06/07 02:00:15;;;;;;;11.25;3.33;;;13.00;99.90;;;;;;5044680;28;20021;-80
2023/06/07 02:03:12;;;;;;;3.92;1.70;;;12.90;99.90;;;;;;5041375;28;20025;-81
2023/06/07 02:05:41;;;;;;;5.85;3.28;;;12.90;99.90;;;;;;5044399;28;20061;-81
2023/06/07 02:08:18;;;;;;;9.18;3.38;;;12.80;99.90;;;;;;5041483;28;20545;-80
2023/06/07 02:10:45;;;;;;;5.63;2.95;;;12.80;99.90;;;;;;5028867;28;20040;-80
2023/06/07 02:13:13;;;;;;;5.85;2.35;;;12.90;99.90;;;;;;5027541;28;20029;-80
2023/06/07 02:15:39;;;;;;;6.32;2.75;;;12.80;99.90;;;;;;5028553;28;20056;-80
2023/06/07 02:18:05;;;;;;;5.45;2.70;;;12.80;99.90;;;;;;5055196;28;20069;-80
2023/06/07 02:20:34;;;;;;;7.63;3.20;;;12.70;99.90;;;;;;5053729;28;20022;-80
2023/06/07 02:23:00;;;;;;;5.20;2.53;;;12.70;99.90;;;;;;5027152;28;20050;-80
2023/06/07 02:25:27;;;;;;;8.15;3.58;;;12.70;99.90;;;;;;5028408;28;20036;-80
2023/06/07 02:27:53;;;;;;;4.85;2.10;;;12.70;99.90;;;;;;5043727;28;20030;-80
2023/06/07 02:30:19;;;;;;;5.40;1.88;;;12.70;99.90;;;;;;5027850;28;20059;-79
2023/06/07 02:32:48;;;;;;;6.32;1.67;;;12.80;99.90;;;;;;5028166;28;20108;-80
2023/06/07 02:35:17;;;;;;;5.65;2.28;;;12.80;99.90;;;;;;5027304;28;20041;-80
2023/06/07 02:37:43;;;;;;;6.10;2.35;;;12.70;99.90;;;;;;5043854;28;20025;-80
2023/06/07 02:40:10;;;;;;;7.45;3.97;;;12.60;99.90;;;;;;5024117;28;20370;-80
2023/06/07 02:42:36;;;;;;;7.20;2.97;;;12.50;99.90;;;;;;5028196;28;20036;-79
2023/06/07 02:45:06;;;;;;;5.30;2.75;;;12.50;99.90;;;;;;5043650;28;20124;-79
2023/06/07 02:47:31;;;;;;;8.63;3.00;;;12.50;99.90;;;;;;5033457;28;20030;-79
2023/06/07 02:50:00;;;;;;;9.93;3.97;;;12.40;99.90;;;;;;5026230;28;20787;-79
2023/06/07 02:52:26;;;;;;;6.03;2.60;;;12.40;99.90;;;;;;5025753;28;20500;-79
2023/06/07 02:54:52;;;;;;;7.18;2.05;;;12.40;99.90;;;;;;5057752;28;20033;-77
2023/06/07 02:57:18;;;;;;;4.43;1.80;;;12.50;99.90;;;;;;5032490;28;20025;-79
2023/06/07 02:59:44;;;;;;;6.13;2.03;;;12.50;99.90;;;;;;5038602;28;20038;-79
2023/06/07 03:02:12;;;;;;;4.75;1.88;;;12.60;99.90;;;;;;5026482;28;20075;-78
2023/06/07 03:04:40;;;;;;;3.00;1.65;;;12.50;99.90;;;;;;5059523;28;20117;-79
2023/06/07 03:07:06;;;;;;;6.20;2.30;;;12.50;99.90;;;;;;5061587;28;20469;-80
2023/06/07 03:09:37;;;;;;;7.28;3.13;;;12.50;99.90;;;;;;5024532;28;20091;-79
2023/06/07 03:12:04;;;;;;;9.68;3.55;;;12.40;99.90;;;;;;5027919;28;20037;-79
2023/06/07 03:14:35;;;;;;;7.43;3.15;;;12.30;99.90;;;;;;5021548;28;20033;-79
2023/06/07 03:17:02;;;;;;;6.88;3.08;;;12.30;99.90;;;;;;5021198;28;20029;-78
2023/06/07 03:19:29;;;;;;;5.63;2.70;;;12.20;99.90;;;;;;5040819;28;20104;-79
2023/06/07 03:21:57;;;;;;;6.97;2.08;;;12.20;99.90;;;;;;5057746;28;20026;-79
2023/06/07 03:24:23;;;;;;;6.63;3.20;;;12.30;99.90;;;;;;5040255;28;20046;-79
2023/06/07 03:26:50;;;;;;;8.15;3.60;;;12.20;99.90;;;;;;5023324;28;20022;-78
2023/06/07 03:29:17;;;;;;;8.43;3.80;;;12.20;99.90;;;;;;5041907;28;20025;-77
2023/06/07 03:31:42;;;;;;;7.70;2.80;;;12.10;99.90;;;;;;5036748;28;20042;-80
2023/06/07 03:34:12;;;;;;;10.10;3.88;;;12.20;99.90;;;;;;5037116;28;20025;-79
2023/06/07 03:36:40;;;;;;;7.15;3.08;;;12.10;99.90;;;;;;5027846;28;20477;-80
2023/06/07 03:39:06;;;;;;;7.25;3.33;;;12.10;99.90;;;;;;5036509;28;20028;-81
2023/06/07 03:41:32;;;;;;;7.70;3.47;;;12.00;99.90;;;;;;5039991;28;20120;-80
2023/06/07 03:44:01;;;;;;;4.25;1.92;;;12.00;99.90;;;;;;5026345;28;20407;-80
2023/06/07 03:46:27;;;;;;;3.75;1.75;;;12.00;99.90;;;;;;5052168;28;20556;-80
2023/06/07 03:48:53;;;;;;;5.72;2.65;;;12.10;99.90;;;;;;5039033;28;20105;-80
2023/06/07 03:51:20;;;;;;;5.25;2.08;;;11.90;99.90;;;;;;5037038;28;20401;-80
2023/06/07 03:53:46;;;;;;;6.18;2.30;;;11.90;99.90;;;;;;5022912;28;20105;-80
2023/06/07 03:56:12;;;;;;;7.38;3.47;;;11.90;99.90;;;;;;5057842;28;20030;-80
2023/06/07 03:58:38;;;;;;;5.45;2.00;;;11.80;99.90;;;;;;5040318;28;20030;-80
2023/06/07 04:01:10;;;;;;;3.40;1.85;;;11.90;99.90;;;;;;5026951;28;20061;-80
2023/06/07 04:03:36;;;;;;;4.80;2.58;;;11.90;99.90;;;;;;5054473;28;20071;-80
2023/06/07 04:06:05;;;;;;;8.52;2.97;;;11.80;99.90;;;;;;5055836;28;20061;-79
2023/06/07 04:08:36;;;;;;;6.10;3.13;;;11.80;99.90;;;;;;5023622;28;20129;-79
2023/06/07 04:11:02;;;;;;;7.30;4.00;;;11.80;99.90;;;;;;5024406;28;20120;-79
2023/06/07 04:13:28;;;;;;;4.88;2.10;;;11.70;99.90;;;;;;5041559;28;20017;-79
2023/06/07 04:15:54;;;;;;;5.15;1.92;;;11.80;99.90;;;;;;5037265;28;20087;-79
2023/06/07 04:18:20;;;;;;;7.93;3.55;;;11.90;99.90;;;;;;5021600;28;21373;-79
2023/06/07 04:20:46;;;;;;;8.90;3.25;;;11.80;99.90;;;;;;5018392;28;20038;-78
2023/06/07 04:23:13;;;;;;;6.40;2.53;;;11.80;99.90;;;;;;5039114;28;20120;-78
2023/06/07 04:25:39;;;;;;;5.82;1.80;;;11.90;99.90;;;;;;5023365;28;20125;-79
2023/06/07 04:28:08;;;;;;;7.95;2.83;;;12.00;99.90;;;;;;5052917;28;20108;-79
2023/06/07 04:30:34;;;;;;;8.13;2.40;;;12.00;99.90;;;;;;5054399;28;20575;-79
2023/06/07 04:33:12;;;;;;;6.13;2.80;;;12.00;99.90;;;;;;5040689;28;20074;-79
2023/06/07 04:35:42;;;;;;;3.88;2.10;;;12.00;99.90;;;;;;5023217;28;20166;-79
2023/06/07 04:38:15;;;;;;;9.45;2.85;;;12.10;99.90;;;;;;5051331;28;20076;-78
2023/06/07 04:40:42;;;;;;;5.00;1.65;;;12.10;99.90;;;;;;5036696;28;20431;-79
2023/06/07 04:43:10;;;;;;;9.82;2.67;;;12.20;99.90;;;;;;5023931;28;20053;-79
2023/06/07 04:45:41;;;;;;;6.78;2.03;;;12.30;99.90;;;;;;5038747;28;20453;-79
2023/06/07 04:48:08;;;;;;;5.97;1.80;;;12.30;99.90;;;;;;5055913;28;20083;-80
2023/06/07 04:50:38;;;;;;;9.70;3.08;;;12.30;99.90;;;;;;5036713;28;20283;-79
2023/06/07 04:53:05;;;;;;;5.53;2.75;;;12.30;99.90;;;;;;5037915;28;20120;-79
2023/06/07 04:55:34;;;;;;;8.00;2.30;;;12.40;99.90;;;;;;5005301;28;20112;-79
2023/06/07 04:58:04;;;;;;;12.23;3.85;;;12.40;99.90;;;;;;5039417;28;20029;-79
2023/06/07 05:00:30;;;;;;;5.00;2.00;;;12.30;99.90;;;;;;5024014;28;20083;-78
2023/06/07 05:02:58;;;;;;;6.28;1.90;;;12.50;99.90;;;;;;5033892;28;20121;-79
2023/06/07 05:05:24;;;;;;;6.07;1.75;;;12.60;99.90;;;;;;5025060;28;20107;-78
2023/06/07 05:07:51;;;;;;;9.05;2.95;;;12.80;99.90;;;;;;5041474;28;20022;-79
2023/06/07 05:10:17;;;;;;;8.73;2.90;;;12.60;99.90;;;;;;5025997;28;20044;-79
2023/06/07 05:12:43;;;;;;;9.13;3.10;;;12.50;99.90;;;;;;5055275;28;20028;-79
2023/06/07 05:15:12;;;;;;;10.52;3.40;;;12.40;99.90;;;;;;5023172;28;20120;-80
2023/06/07 05:17:39;;;;;;;8.77;2.80;;;12.50;99.90;;;;;;5021295;28;20116;-80
2023/06/07 05:20:10;;;;;;;6.97;2.53;;;12.50;99.90;;;;;;5038621;28;20034;-80
2023/06/07 05:22:38;;;;;;;11.70;3.47;;;12.60;99.90;;;;;;5026135;28;20025;-79
2023/06/07 05:25:06;;;;;;;5.90;2.33;;;12.50;99.90;;;;;;5024819;28;20069;-79
2023/06/07 05:27:32;;;;;;;5.70;1.45;;;12.50;99.90;;;;;;5034692;28;20022;-79
2023/06/07 05:29:58;;;;;;;7.88;2.72;;;12.80;99.90;;;;;;5038232;28;20059;-79
2023/06/07 05:32:24;;;;;;;10.23;2.90;;;12.70;99.90;;;;;;5050588;28;20040;-80
2023/06/07 05:34:52;;;;;;;8.15;2.47;;;12.80;99.90;;;;;;5030173;28;20029;-80
2023/06/07 05:37:19;;;;;;;5.47;1.40;;;12.80;99.90;;;;;;5036787;28;20056;-79
2023/06/07 05:39:46;;;;;;;6.88;2.53;;;12.90;99.90;;;;;;5024166;28;20026;-79
2023/06/07 05:42:12;;;;;;;8.25;2.25;;;12.80;99.90;;;;;;5042379;28;20127;-79
2023/06/07 05:44:40;;;;;;;8.10;3.58;;;12.90;99.90;;;;;;5025407;28;20517;-80
2023/06/07 05:47:06;;;;;;;11.05;3.22;;;12.70;99.90;;;;;;5025248;28;20026;-79
2023/06/07 05:49:32;;;;;;;7.97;3.33;;;12.70;99.90;;;;;;5008971;28;20036;-79
2023/06/07 05:51:58;;;;;;;6.95;3.63;;;12.70;99.90;;;;;;5024577;28;20022;-79
2023/06/07 05:54:25;;;;;;;8.93;3.17;;;12.70;99.90;;;;;;5041678;28;20037;-79
2023/06/07 05:56:51;;;;;;;6.53;2.58;;;12.80;99.90;;;;;;5059337;28;20022;-79
2023/06/07 05:59:17;;;;;;;7.75;2.90;;;12.80;99.90;;;;;;5042609;28;20417;-80
2023/06/07 06:01:44;;;;;;;9.57;2.78;;;12.90;99.90;;;;;;5058376;28;20389;-79
2023/06/07 06:04:11;;;;;;;6.85;1.55;;;12.90;99.90;;;;;;5020938;28;20038;-80
2023/06/07 06:06:38;;;;;;;6.57;2.33;;;13.20;99.90;;;;;;5041713;28;20401;-80
2023/06/07 06:09:05;;;;;;;7.47;2.45;;;13.30;99.90;;;;;;5027134;28;20044;-79
2023/06/07 06:11:30;;;;;;;5.07;2.28;;;13.40;99.90;;;;;;5026252;28;20088;-80
2023/06/07 06:13:56;;;;;;;5.15;2.50;;;13.60;99.90;;;;;;5023873;28;20029;-79
2023/06/07 06:16:22;;;;;;;5.20;1.65;;;13.60;99.90;;;;;;5025221;28;20032;-78
2023/06/07 06:18:48;;;;;;;9.93;3.30;;;13.60;99.90;;;;;;5024992;28;20033;-79
2023/06/07 06:21:14;;;;;;;10.50;3.55;;;13.50;99.90;;;;;;5022909;28;20085;-79
2023/06/07 06:23:39;;;;;;;5.72;2.55;;;13.40;99.90;;;;;;5055651;28;20480;-79
2023/06/07 06:26:05;;;;;;;9.43;3.33;;;13.50;99.90;;;;;;5053680;28;20033;-79
2023/06/07 06:28:31;;;;;;;6.72;2.33;;;13.60;99.90;;;;;;5057452;28;20604;-79
2023/06/07 06:30:57;;;;;;;6.22;2.30;;;13.60;99.90;;;;;;5024446;28;20331;-79
2023/06/07 06:33:22;;;;;;;8.88;2.53;;;13.70;99.90;;;;;;5024583;28;20029;-78
2023/06/07 06:35:48;;;;;;;5.13;1.63;;;13.80;99.90;;;;;;5041996;28;20017;-79
2023/06/07 06:38:14;;;;;;;7.88;3.58;;;14.00;99.90;;;;;;5026999;28;20033;-79
2023/06/07 06:40:40;;;;;;;10.85;3.78;;;13.90;99.90;;;;;;5038236;28;20022;-79
2023/06/07 06:43:06;;;;;;;8.65;4.30;;;13.80;99.90;;;;;;5025951;28;20029;-79
2023/06/07 06:45:35;;;;;;;9.90;3.80;;;13.70;99.90;;;;;;5043490;28;20045;-80
2023/06/07 06:48:00;;;;;;;9.23;3.45;;;13.80;99.90;;;;;;5025535;28;20048;-79
2023/06/07 06:50:28;;;;;;;12.27;4.50;;;13.80;99.90;;;;;;5043267;28;20137;-79
2023/06/07 06:52:54;;;;;;;11.23;4.18;;;13.70;99.90;;;;;;5024193;28;20029;-79
2023/06/07 06:55:20;;;;;;;10.18;4.00;;;13.80;99.90;;;;;;5026170;28;20040;-79
2023/06/07 06:57:45;;;;;;;9.18;3.67;;;13.90;99.90;;;;;;5040253;28;20045;-79
2023/06/07 07:00:11;;;;;;;7.78;2.78;;;13.90;99.90;;;;;;5044260;28;20046;-80
2023/06/07 07:02:37;;;;;;;14.70;4.00;;;14.10;99.90;;;;;;5025216;28;20392;-79
2023/06/07 07:05:05;;;;;;;6.72;3.63;;;13.90;99.90;;;;;;5059362;28;20124;-80
2023/06/07 07:07:31;;;;;;;9.20;3.03;;;14.00;99.90;;;;;;5025077;28;20033;-80
2023/06/07 07:09:57;;;;;;;7.72;2.55;;;14.20;99.90;;;;;;5026849;28;20041;-79
2023/06/07 07:12:23;;;;;;;8.23;2.60;;;14.40;99.90;;;;;;5038454;28;20022;-79
2023/06/07 07:14:49;;;;;;;13.05;4.47;;;14.40;99.90;;;;;;5031870;28;20061;-79
2023/06/07 07:17:15;;;;;;;15.10;5.00;;;14.30;99.90;;;;;;5042200;28;20044;-79
2023/06/07 07:19:40;;;;;;;11.73;5.30;;;14.30;99.90;;;;;;5038965;28;20029;-79
2023/06/07 07:22:08;;;;;;;13.13;4.07;;;14.20;99.90;;;;;;5025496;28;20116;-80
2023/06/07 07:24:33;;;;;;;8.20;3.75;;;14.50;99.90;;;;;;5039525;28;20108;-80
2023/06/07 07:26:59;;;;;;;7.53;2.80;;;14.70;99.90;;;;;;5035562;28;20041;-79
2023/06/07 07:29:26;;;;;;;9.95;3.67;;;15.10;99.90;;;;;;5008346;28;20029;-80
2023/06/07 07:31:51;;;;;;;10.18;4.50;;;15.20;99.90;;;;;;5052664;28;20068;-79
2023/06/07 07:34:17;;;;;;;8.13;3.80;;;14.90;99.90;;;;;;5043697;28;20075;-80
2023/06/07 07:36:44;;;;;;;16.48;4.20;;;15.10;99.90;;;;;;5022786;28;20496;-79
2023/06/07 07:39:21;;;;;;;8.25;2.63;;;15.20;99.90;;;;;;5023414;28;20030;-80
2023/06/07 07:41:47;;;;;;;8.48;2.95;;;15.50;99.90;;;;;;5025036;28;20021;-81
2023/06/07 07:44:13;;;;;;;15.50;5.20;;;15.70;99.90;;;;;;5006832;28;20512;-80
2023/06/07 07:46:38;;;;;;;9.30;3.05;;;15.40;99.90;;;;;;5035360;28;20033;-80
2023/06/07 07:49:04;;;;;;;8.23;2.67;;;15.80;99.90;;;;;;5035110;28;20069;-80
2023/06/07 07:51:30;;;;;;;15.75;4.72;;;16.10;99.90;;;;;;5022418;28;20025;-81
2023/06/07 07:53:56;;;;;;;8.38;4.00;;;15.60;99.90;;;;;;5054396;28;20092;-80
2023/06/07 07:56:22;;;;;;;10.57;4.07;;;15.80;99.90;;;;;;5022197;28;20037;-80
2023/06/07 07:58:49;;;;;;;6.47;2.58;;;16.10;99.90;;;;;;5038877;28;20137;-80
2023/06/07 08:01:16;;;;;;;8.52;2.80;;;16.20;99.90;;;;;;5032677;28;20064;-80
2023/06/07 08:03:42;;;;;;;6.32;2.33;;;16.40;99.90;;;;;;5036630;28;20462;-81
2023/06/07 08:06:08;;;;;;;4.82;1.45;;;16.60;99.90;;;;;;5033769;28;20090;-80
2023/06/07 08:08:34;;;;;;;4.55;1.48;;;16.80;99.90;;;;;;5051804;28;20128;-80
2023/06/07 08:11:00;;;;;;;4.72;1.38;;;17.00;99.90;;;;;;5023915;28;20043;-81
2023/06/07 08:13:26;;;;;;;4.53;1.33;;;17.00;99.90;;;;;;5055879;28;20063;-80
2023/06/07 08:15:52;;;;;;;9.32;2.47;;;17.30;99.90;;;;;;5042626;28;20029;-81
2023/06/07 08:18:17;;;;;;;9.30;2.83;;;17.30;99.90;;;;;;5021342;28;20032;-80
2023/06/07 08:20:44;;;;;;;4.68;1.88;;;17.40;99.90;;;;;;5002444;28;20396;-80
2023/06/07 08:23:09;;;;;;;6.82;2.42;;;17.70;99.90;;;;;;5026047;28;20022;-80
2023/06/07 08:25:35;;;;;;;4.50;1.38;;;17.70;99.90;;;;;;5026046;28;20432;-79
2023/06/07 08:28:01;;;;;;;4.72;2.20;;;17.90;99.90;;;;;;5022051;28;20017;-80
2023/06/07 08:30:26;;;;;;;8.25;2.15;;;17.60;99.90;;;;;;5022820;28;20053;-81
2023/06/07 08:32:52;;;;;;;8.52;2.78;;;17.40;99.90;;;;;;5023481;28;20146;-81
2023/06/07 08:35:18;;;;;;;6.93;1.70;;;17.30;99.90;;;;;;5053391;28;20067;-81
2023/06/07 08:37:43;;;;;;;12.20;2.13;;;17.40;99.90;;;;;;5024104;28;20101;-80
2023/06/07 08:40:10;;;;;;;6.45;2.17;;;17.70;99.90;;;;;;5023083;28;20037;-80
2023/06/07 08:42:38;;;;;;;5.72;1.92;;;17.40;99.90;;;;;;5050594;28;20083;-80
2023/06/07 08:45:04;;;;;;;9.32;3.03;;;17.60;99.90;;;;;;5020347;28;20064;-80
2023/06/07 08:47:30;;;;;;;5.65;1.48;;;17.40;99.90;;;;;;5022550;28;20078;-80
2023/06/07 08:49:57;;;;;;;4.43;1.40;;;17.70;99.90;;;;;;5019535;28;20474;-80
2023/06/07 08:52:26;;;;;;;7.68;1.98;;;17.90;99.90;;;;;;5021835;28;20029;-80
2023/06/07 08:54:58;;;;;;;7.33;2.60;;;18.20;99.90;;;;;;5037500;28;20037;-80
2023/06/07 08:57:26;;;;;;;9.82;3.15;;;18.10;99.90;;;;;;5036176;28;20021;-80
2023/06/07 08:59:52;;;;;;;8.55;3.00;;;17.70;99.90;;;;;;5018850;28;20079;-80
2023/06/07 09:02:19;;;;;;;9.50;2.60;;;17.90;99.90;;;;;;5034462;28;20033;-81
2023/06/07 09:04:46;;;;;;;7.25;2.53;;;17.90;99.90;;;;;;5053732;28;20033;-80
2023/06/07 09:07:12;;;;;;;4.70;1.77;;;18.00;99.90;;;;;;5031664;28;20030;-80
2023/06/07 09:09:41;;;;;;;9.20;3.08;;;18.10;99.90;;;;;;5019915;28;20525;-80
2023/06/07 09:12:07;;;;;;;6.55;2.92;;;17.90;99.90;;;;;;5052907;28;20040;-81
2023/06/07 09:14:34;;;;;;;8.07;2.80;;;17.50;99.90;;;;;;5022422;28;20035;-80
2023/06/07 09:17:01;;;;;;;5.15;1.95;;;17.50;99.90;;;;;;5026722;28;20026;-80
2023/06/07 09:19:35;;;;;;;5.65;1.85;;;17.70;99.90;;;;;;5022955;28;20033;-79
2023/06/07 09:22:06;;;;;;;7.72;2.88;;;18.10;99.90;;;;;;5024653;28;20028;-79
2023/06/07 09:24:33;;;;;;;6.70;3.65;;;18.10;99.90;;;;;;5044159;28;20093;-79
2023/06/07 09:27:00;;;;;;;7.88;3.05;;;17.80;99.90;;;;;;5043166;28;20036;-80
2023/06/07 09:29:28;;;;;;;11.70;4.30;;;17.50;99.90;;;;;;5023448;28;20026;-79
2023/06/07 09:32:15;;;;;;;9.48;3.35;;;17.10;99.90;;;;;;5027929;28;20132;-80
2023/06/07 09:34:40;;;;;;;7.97;2.83;;;17.00;99.90;;;;;;5020712;28;20604;-79
2023/06/07 09:37:06;;;;;;;12.00;4.20;;;17.00;99.90;;;;;;5026814;28;20073;-80
2023/06/07 09:39:32;;;;;;;7.70;2.85;;;16.80;99.90;;;;;;5042977;28;20401;-79
2023/06/07 09:41:58;;;;;;;11.73;3.50;;;17.00;99.90;;;;;;5060021;28;20037;-79
2023/06/07 09:44:28;;;;;;;6.40;2.50;;;16.90;99.90;;;;;;5040266;28;20140;-80
2023/06/07 09:46:55;;;;;;;7.85;3.20;;;16.80;99.90;;;;;;5029312;28;20111;-81
2023/06/07 09:49:31;;;;;;;7.15;2.88;;;16.80;99.90;;;;;;5042389;28;20029;-81
2023/06/07 09:51:57;;;;;;;9.43;3.00;;;16.90;99.90;;;;;;5024438;28;20184;-79
2023/06/07 09:54:40;;;;;;;7.80;2.65;;;17.30;99.90;;;;;;5026162;28;20119;-80
2023/06/07 09:57:11;;;;;;;7.07;2.28;;;17.60;99.90;;;;;;5024826;28;20080;-80
2023/06/07 09:59:38;;;;;;;6.07;2.60;;;18.00;99.90;;;;;;5028250;28;20081;-81
2023/06/07 10:02:25;;;;;;;7.75;2.83;;;18.00;99.90;;;;;;5028390;28;20168;-82
2023/06/07 10:04:52;;;;;;;6.47;1.85;;;18.10;99.90;;;;;;5028489;28;20038;-80
2023/06/07 10:07:22;;;;;;;11.93;2.67;;;18.20;99.90;;;;;;5056809;28;20034;-80
2023/06/07 10:09:55;;;;;;;8.32;3.28;;;18.30;99.90;;;;;;5038348;28;20052;-81
2023/06/07 10:12:22;;;;;;;5.22;2.80;;;18.10;99.90;;;;;;5026708;28;20017;-81
2023/06/07 10:14:48;;;;;;;11.52;3.55;;;18.30;99.90;;;;;;5027051;28;20032;-80
2023/06/07 10:17:17;;;;;;;12.27;3.95;;;18.10;99.90;;;;;;5028755;28;20038;-81
2023/06/07 10:19:57;;;;;;;10.20;4.22;;;18.00;99.90;;;;;;5025820;28;20477;-81
2023/06/07 10:22:26;;;;;;;9.38;4.85;;;18.30;99.90;;;;;;5026031;28;20130;-81
2023/06/07 10:25:18;;;;;;;5.40;2.75;;;18.50;99.90;;;;;;5045564;28;20057;-81
2023/06/07 10:27:51;;;;;;;7.80;3.15;;;19.20;99.90;;;;;;5023756;28;20025;-81
2023/06/07 10:30:18;;;;;;;13.32;4.90;;;19.20;99.90;;;;;;5037763;28;20042;-81
2023/06/07 10:32:46;;;;;;;6.07;2.15;;;19.10;99.90;;;;;;5025569;28;20030;-81
2023/06/07 10:35:12;;;;;;;6.18;2.67;;;19.90;99.90;;;;;;5027855;28;20030;-80
2023/06/07 10:37:40;;;;;;;5.57;2.42;;;19.40;99.90;;;;;;5056222;28;20032;-80
2023/06/07 10:40:10;;;;;;;5.82;1.90;;;19.70;99.90;;;;;;5024110;28;20025;-81
2023/06/07 10:42:40;;;;;;;5.20;1.77;;;20.10;99.90;;;;;;5034784;28;20076;-81
2023/06/07 10:45:11;;;;;;;4.30;1.60;;;20.20;99.90;;;;;;5024723;28;20037;-81
2023/06/07 10:47:37;;;;;;;5.30;1.40;;;20.40;99.90;;;;;;5040278;28;20026;-80
2023/06/07 10:50:03;;;;;;;5.75;1.38;;;20.30;99.90;;;;;;5023921;28;20480;-81
2023/06/07 10:52:29;;;;;;;6.30;1.80;;;20.30;99.90;;;;;;5037892;28;20496;-81
2023/06/07 10:54:55;;;;;;;6.28;1.67;;;20.20;99.90;;;;;;5060383;28;20554;-81
2023/06/07 10:57:37;;;;;;;7.75;3.20;;;20.10;99.90;;;;;;5024653;28;20095;-81
2023/06/07 11:00:29;;;;;;;5.90;2.13;;;19.90;99.90;;;;;;5027377;28;20036;-81
2023/06/07 11:03:16;;;;;;;6.32;2.70;;;20.20;99.90;;;;;;5025625;28;20030;-80
2023/06/07 11:05:53;;;;;;;6.57;1.65;;;20.00;99.90;;;;;;5041589;28;20040;-81
2023/06/07 11:08:29;;;;;;;6.25;1.52;;;20.20;99.90;;;;;;5026804;28;20125;-81
2023/06/07 11:10:58;;;;;;;4.57;1.67;;;20.40;99.90;;;;;;5022760;28;20044;-81
2023/06/07 11:13:25;;;;;;;3.40;1.05;;;20.70;99.90;;;;;;5040021;28;20021;-81
2023/06/07 11:15:51;;;;;;;3.35;1.02;;;20.70;99.90;;;;;;5022070;28;20033;-81
2023/06/07 11:18:17;;;;;;;3.58;1.13;;;20.60;99.90;;;;;;5027191;28;20029;-82
2023/06/07 11:20:44;;;;;;;3.80;1.13;;;21.00;99.90;;;;;;5024285;28;20047;-81
2023/06/07 11:23:29;;;;;;;5.30;1.58;;;20.90;99.90;;;;;;5005269;28;20108;-81
2023/06/07 11:26:12;;;;;;;5.45;1.77;;;20.60;99.90;;;;;;5054686;28;20095;-81
2023/06/07 11:28:39;;;;;;;4.78;1.98;;;20.40;99.90;;;;;;5040148;28;20030;-80
2023/06/07 11:31:10;;;;;;;4.57;1.50;;;20.50;99.90;;;;;;5039841;28;20061;-80
2023/06/07 11:33:36;;;;;;;5.22;1.38;;;20.80;99.90;;;;;;5003764;28;20175;-81
2023/06/07 11:36:04;;;;;;;4.82;1.50;;;21.00;99.90;;;;;;5004891;28;20030;-81
2023/06/07 11:38:30;;;;;;;3.15;1.05;;;20.90;99.90;;;;;;4994484;28;20106;-81
2023/06/07 11:40:56;;;;;;;3.42;1.27;;;20.90;99.90;;;;;;5019794;28;20061;-82
2023/06/07 11:43:31;;;;;;;5.32;1.45;;;21.10;99.90;;;;;;5021418;28;20079;-82
2023/06/07 11:45:58;;;;;;;5.97;1.05;;;21.20;99.90;;;;;;5005822;28;20065;-82
2023/06/07 11:48:28;;;;;;;3.92;0.90;;;21.40;99.90;;;;;;4999327;28;20034;-82
2023/06/07 11:50:53;;;;;;;;;;;21.50;99.90;;;;;;5018275;28;20038;-82
2023/06/07 11:53:20;;;;;;;3.03;1.08;;;21.70;99.90;;;;;;5029723;28;19909;-82
2023/06/07 11:55:46;;;;;;;4.43;2.00;;;21.90;99.90;;;;;;5002632;28;20022;-82
2023/06/07 11:58:12;;;;;;;5.40;1.75;;;21.70;99.90;;;;;;5021185;28;20037;-81
2023/06/07 12:00:37;;;;;;;4.03;1.33;;;21.80;99.90;;;;;;5005957;28;20021;-82
2023/06/07 12:03:05;;;;;;;5.80;1.05;;;22.40;99.90;;;;;;5006927;28;20025;-82
2023/06/07 12:05:31;;;;;;;3.20;1.10;;;23.20;99.90;;;;;;5017630;28;20042;-82
2023/06/07 12:08:10;;;;;;;5.90;1.40;;;23.70;99.90;;;;;;5000683;28;20029;-82
2023/06/07 12:10:36;;;;;;;7.97;1.58;;;23.10;99.90;;;;;;5000644;28;20116;-83
2023/06/07 12:13:13;;;;;;;9.02;2.40;;;22.80;99.90;;;;;;5014902;28;20386;-82
2023/06/07 12:15:52;;;;;;;3.88;1.17;;;22.70;99.90;;;;;;5013821;28;20470;-82
2023/06/07 12:18:28;;;;;;;2.88;0.70;;;23.10;99.90;;;;;;5033923;28;20030;-82
2023/06/07 12:21:11;;;;;;;6.85;2.67;;;23.20;99.90;;;;;;5006763;28;20018;-82
2023/06/07 12:23:44;;;;;;;5.80;1.65;;;22.80;99.90;;;;;;5004326;28;20120;-82
2023/06/07 12:26:15;;;;;;;3.88;1.50;;;22.60;99.90;;;;;;5037147;28;20043;-83
2023/06/07 12:28:42;;;;;;;5.60;1.85;;;22.50;99.90;;;;;;5014723;28;20037;-82
2023/06/07 12:31:26;;;;;;;4.18;1.05;;;23.00;99.90;;;;;;5006105;28;20128;-82
2023/06/07 12:34:02;;;;;;;4.15;1.00;;;23.20;99.90;;;;;;4999360;28;20498;-82
2023/06/07 12:36:33;;;;;;;3.63;1.10;;;22.70;99.90;;;;;;5015706;28;20478;-81
2023/06/07 12:39:07;;;;;;;8.32;1.55;;;22.40;99.90;;;;;;5004019;28;20065;-82
2023/06/07 12:41:33;;;;;;;4.07;0.88;;;22.50;99.90;;;;;;5022299;28;20030;-82
2023/06/07 12:44:03;;;;;;;3.10;1.00;;;22.70;99.90;;;;;;5001007;28;20076;-82
2023/06/07 12:46:32;;;;;;;3.80;1.10;;;22.70;99.90;;;;;;5000933;28;20041;-82
2023/06/07 12:48:58;;;;;;;4.65;1.30;;;23.00;99.90;;;;;;5005749;28;20022;-82
2023/06/07 12:51:25;;;;;;;4.22;0.85;;;22.90;99.90;;;;;;5004264;28;20434;-81